createdAt,value
2018-07-30T00:00:17.124Z,11.33
2018-07-30T00:02:46.078Z,11.90
2018-07-30T00:05:14.966Z,11.00
2018-07-30T00:07:43.811Z,10.73
2018-07-30T00:10:12.768Z,11.90
2018-07-30T00:12:41.659Z,12.07
2018-07-30T00:15:10.520Z,11.10
2018-07-30T00:17:39.343Z,11.70
2018-07-30T00:20:08.267Z,11.90
2018-07-30T00:22:37.095Z,12.27
2018-07-30T00:25:05.940Z,12.07
2018-07-30T00:27:34.734Z,11.20
2018-07-30T00:30:04.214Z,11.63
2018-07-30T00:32:33.044Z,13.10
2018-07-30T00:35:01.861Z,12.17
2018-07-30T00:37:30.711Z,11.67
2018-07-30T00:40:01.562Z,12.80
2018-07-30T00:42:30.322Z,12.13
2018-07-30T00:44:59.128Z,12.33
2018-07-30T00:47:27.975Z,12.37
2018-07-30T00:49:57.859Z,12.37
2018-07-30T00:52:26.683Z,12.80
2018-07-30T00:54:55.583Z,11.83
2018-07-30T00:57:24.390Z,11.07
2018-07-30T00:59:53.298Z,11.57
2018-07-30T01:02:22.138Z,12.53
2018-07-30T01:04:50.983Z,12.30
2018-07-30T01:07:19.815Z,12.33
2018-07-30T01:09:48.699Z,12.03
2018-07-30T01:12:17.559Z,12.80
2018-07-30T01:14:46.390Z,11.40
2018-07-30T01:17:15.259Z,11.67
2018-07-30T01:19:44.219Z,12.70
2018-07-30T01:22:13.203Z,13.90
2018-07-30T01:24:42.005Z,10.93
2018-07-30T01:27:10.736Z,12.00
2018-07-30T01:29:39.714Z,12.50
2018-07-30T01:32:08.556Z,11.50
2018-07-30T01:34:37.399Z,10.80
2018-07-30T01:37:06.226Z,12.97
2018-07-30T01:39:35.408Z,12.53
2018-07-30T01:42:04.275Z,11.83
2018-07-30T01:44:33.154Z,11.37
2018-07-30T01:47:01.992Z,12.17
2018-07-30T01:49:30.853Z,12.67
2018-07-30T01:51:59.759Z,12.57
2018-07-30T01:54:28.600Z,12.97
2018-07-30T01:56:57.451Z,13.30
2018-07-30T01:59:28.331Z,12.63
2018-07-30T02:01:57.163Z,12.90
2018-07-30T02:04:26.008Z,12.43
2018-07-30T02:06:54.818Z,13.10
2018-07-30T02:09:23.732Z,12.60
2018-07-30T02:11:52.581Z,11.27
2018-07-30T02:14:21.451Z,12.60
2018-07-30T02:16:50.318Z,13.37
2018-07-30T02:19:19.145Z,12.00
2018-07-30T02:21:47.999Z,12.17
2018-07-30T02:24:16.759Z,13.30
2018-07-30T02:26:45.646Z,13.70
2018-07-30T02:29:14.490Z,13.30
2018-07-30T02:31:43.330Z,13.00
2018-07-30T02:34:12.203Z,12.77
2018-07-30T02:36:41.124Z,13.40
2018-07-30T02:39:12.687Z,12.73
2018-07-30T02:41:41.870Z,13.30
2018-07-30T02:44:10.864Z,13.20
2018-07-30T02:46:39.921Z,13.27
2018-07-30T02:49:09.727Z,13.00
2018-07-30T02:51:38.588Z,13.87
2018-07-30T02:54:07.719Z,13.07
2018-07-30T02:56:36.643Z,13.43
2018-07-30T02:59:05.630Z,13.80
2018-07-30T03:01:34.492Z,14.13
2018-07-30T03:04:03.359Z,13.90
2018-07-30T03:06:32.242Z,13.40
2018-07-30T03:09:01.111Z,13.93
2018-07-30T03:11:29.986Z,12.87
2018-07-30T03:13:58.899Z,13.20
2018-07-30T03:16:27.743Z,13.43
2018-07-30T03:18:56.599Z,13.73
2018-07-30T03:21:25.438Z,12.60
2018-07-30T03:23:54.274Z,12.67
2018-07-30T03:26:23.024Z,14.00
2018-07-30T03:28:52.307Z,11.70
2018-07-30T03:31:21.429Z,12.90
2018-07-30T03:33:50.282Z,13.77
2018-07-30T03:36:19.127Z,12.67
2018-07-30T03:38:47.979Z,12.33
2018-07-30T03:41:16.954Z,13.07
2018-07-30T03:43:45.782Z,13.50
2018-07-30T03:46:14.691Z,13.03
2018-07-30T03:48:43.543Z,13.97
2018-07-30T03:51:12.528Z,12.23
2018-07-30T03:53:41.348Z,13.47
2018-07-30T03:56:10.212Z,14.57
2018-07-30T03:58:39.036Z,13.50
2018-07-30T04:01:07.967Z,13.90
2018-07-30T04:03:36.854Z,14.03
2018-07-30T04:06:05.848Z,13.70
2018-07-30T04:08:34.831Z,13.07
2018-07-30T04:11:03.724Z,12.87
2018-07-30T04:13:32.617Z,13.57
2018-07-30T04:16:01.435Z,13.30
2018-07-30T04:18:30.278Z,14.23
2018-07-30T04:20:59.198Z,14.30
2018-07-30T04:23:28.035Z,13.60
2018-07-30T04:25:56.867Z,13.80
2018-07-30T04:28:25.802Z,15.17
2018-07-30T04:30:54.802Z,14.90
2018-07-30T04:33:24.200Z,14.90
2018-07-30T04:35:53.343Z,13.43
2018-07-30T04:38:22.210Z,15.23
2018-07-30T04:40:51.136Z,13.87
2018-07-30T04:43:19.991Z,15.23
2018-07-30T04:45:48.762Z,14.63
2018-07-30T04:48:17.592Z,15.40
2018-07-30T04:50:46.537Z,13.33
2018-07-30T04:53:15.424Z,14.53
2018-07-30T04:55:44.304Z,13.13
2018-07-30T04:58:13.151Z,14.40
2018-07-30T05:00:42.315Z,14.00
2018-07-30T05:03:11.263Z,14.47
2018-07-30T05:05:40.210Z,15.00
2018-07-30T05:08:09.026Z,14.50
2018-07-30T05:10:37.765Z,13.83
2018-07-30T05:13:07.723Z,14.73
2018-07-30T05:15:36.737Z,14.43
2018-07-30T05:18:05.843Z,15.10
2018-07-30T05:20:35.292Z,13.73
2018-07-30T05:23:04.285Z,15.10
2018-07-30T05:25:33.227Z,14.97
2018-07-30T05:28:02.025Z,13.80
2018-07-30T05:30:30.987Z,13.83
2018-07-30T05:32:59.859Z,15.23
2018-07-30T05:35:29.245Z,13.90
2018-07-30T05:37:58.186Z,14.03
2018-07-30T05:40:27.068Z,14.07
2018-07-30T05:42:55.918Z,13.47
2018-07-30T05:45:24.791Z,14.63
2018-07-30T05:47:53.661Z,14.60
2018-07-30T05:50:22.527Z,14.40
2018-07-30T05:52:51.395Z,14.00
2018-07-30T05:55:20.271Z,14.10
2018-07-30T05:57:49.123Z,14.03
2018-07-30T06:00:18.038Z,14.80
2018-07-30T06:02:47.236Z,13.70
2018-07-30T06:05:16.187Z,13.40
2018-07-30T06:07:45.043Z,16.30
2018-07-30T06:10:13.829Z,17.60
2018-07-30T06:12:42.592Z,15.50
2018-07-30T06:15:11.429Z,15.47
2018-07-30T06:17:41.210Z,15.33
2018-07-30T06:20:10.967Z,14.20
2018-07-30T06:22:40.177Z,14.77
2018-07-30T06:25:09.068Z,15.47
2018-07-30T06:27:37.997Z,14.20
2018-07-30T06:30:07.622Z,14.63
2018-07-30T06:32:36.551Z,15.57
2018-07-30T06:35:05.802Z,16.40
2018-07-30T06:37:34.964Z,13.93
2018-07-30T06:40:04.050Z,14.17
2018-07-30T06:42:32.976Z,14.60
2018-07-30T06:45:01.807Z,16.07
2018-07-30T06:47:30.678Z,14.73
2018-07-30T06:49:59.508Z,13.73
2018-07-30T06:52:28.345Z,14.13
2018-07-30T06:54:57.165Z,15.00
2018-07-30T06:57:26.009Z,14.50
2018-07-30T06:59:54.864Z,15.60
2018-07-30T07:02:23.724Z,13.70
2018-07-30T07:04:52.485Z,15.33
2018-07-30T07:07:21.295Z,14.97
2018-07-30T07:09:50.212Z,15.10
2018-07-30T07:12:19.082Z,14.07
2018-07-30T07:14:47.904Z,14.43
2018-07-30T07:17:16.791Z,15.53
2018-07-30T07:19:45.662Z,14.83
2018-07-30T07:22:14.499Z,15.10
2018-07-30T07:24:43.336Z,15.43
2018-07-30T07:27:12.276Z,14.97
2018-07-30T07:29:41.096Z,14.33
2018-07-30T07:32:10.676Z,15.53
2018-07-30T07:34:39.503Z,14.73
2018-07-30T07:37:08.368Z,15.60
2018-07-30T07:39:37.267Z,15.17
2018-07-30T07:42:06.987Z,14.50
2018-07-30T07:44:36.640Z,14.17
2018-07-30T07:47:06.180Z,14.43
2018-07-30T07:49:35.442Z,14.57
2018-07-30T07:52:04.688Z,13.27
2018-07-30T07:54:34.039Z,15.47
2018-07-30T07:57:03.486Z,13.27
2018-07-30T07:59:33.080Z,15.30
2018-07-30T08:02:02.280Z,14.80
2018-07-30T08:04:31.319Z,14.27
2018-07-30T08:07:00.754Z,13.67
2018-07-30T08:09:29.959Z,14.00
2018-07-30T08:11:59.146Z,13.23
2018-07-30T08:14:28.260Z,12.93
2018-07-30T08:16:57.452Z,12.23
2018-07-30T08:19:26.722Z,14.00
2018-07-30T08:21:56.033Z,12.57
2018-07-30T08:24:25.662Z,12.73
2018-07-30T08:26:54.849Z,12.37
2018-07-30T08:29:24.000Z,14.40
2018-07-30T08:31:53.330Z,13.60
2018-07-30T08:34:22.733Z,13.80
2018-07-30T08:36:51.863Z,13.43
2018-07-30T08:39:21.252Z,12.77
2018-07-30T08:41:50.531Z,11.13
2018-07-30T08:44:20.002Z,12.33
2018-07-30T08:46:49.348Z,11.93
2018-07-30T08:49:19.184Z,14.47
2018-07-30T08:51:48.315Z,16.50
2018-07-30T08:54:17.495Z,11.80
2018-07-30T08:56:46.796Z,12.40
2018-07-30T08:59:15.836Z,13.07
2018-07-30T09:01:45.161Z,13.83
2018-07-30T09:04:14.366Z,12.43
2018-07-30T09:06:44.003Z,12.37
2018-07-30T09:09:12.953Z,12.90
2018-07-30T09:11:42.765Z,14.97
2018-07-30T09:14:11.668Z,13.60
2018-07-30T09:16:40.535Z,11.67
2018-07-30T09:19:09.387Z,12.03
2018-07-30T09:21:38.215Z,12.03
2018-07-30T09:24:07.123Z,11.90
2018-07-30T09:26:35.958Z,11.30
2018-07-30T09:29:04.852Z,12.47
2018-07-30T09:31:33.695Z,11.67
2018-07-30T09:34:02.626Z,10.37
2018-07-30T09:36:31.445Z,10.80
2018-07-30T09:39:00.303Z,9.20
2018-07-30T09:41:35.930Z,9.83
2018-07-30T09:44:04.875Z,9.60
2018-07-30T09:46:33.787Z,10.80
2018-07-30T09:49:02.727Z,13.40
2018-07-30T09:51:31.576Z,11.40
2018-07-30T09:54:00.414Z,12.87
2018-07-30T09:56:29.258Z,12.43
2018-07-30T09:58:58.130Z,11.40
2018-07-30T10:01:28.855Z,13.20
2018-07-30T10:03:58.908Z,11.23
2018-07-30T10:06:27.869Z,11.40
2018-07-30T10:08:56.775Z,11.70
2018-07-30T10:11:25.608Z,14.13
2018-07-30T10:13:54.439Z,12.97
2018-07-30T10:16:23.290Z,12.77
2018-07-30T10:18:53.147Z,11.37
2018-07-30T10:21:21.983Z,11.60
2018-07-30T10:23:50.909Z,11.97
2018-07-30T10:26:19.707Z,11.23
2018-07-30T10:28:48.540Z,10.73
2018-07-30T10:31:17.947Z,10.87
2018-07-30T10:33:47.106Z,10.57
2018-07-30T10:36:16.041Z,11.33
2018-07-30T10:38:44.898Z,10.70
2018-07-30T10:41:13.791Z,11.50
2018-07-30T10:43:42.647Z,10.33
2018-07-30T10:46:11.560Z,10.83
2018-07-30T10:48:40.388Z,11.40
2018-07-30T10:51:09.173Z,12.23
2018-07-30T10:53:38.073Z,11.60
2018-07-30T10:56:06.950Z,10.50
2018-07-30T10:58:35.800Z,9.90
2018-07-30T11:01:04.710Z,9.70
2018-07-30T11:03:33.484Z,9.97
2018-07-30T11:06:02.412Z,12.03
2018-07-30T11:08:31.260Z,12.97
2018-07-30T11:11:00.124Z,10.83
2018-07-30T11:13:29.211Z,10.87
2018-07-30T11:15:58.119Z,10.67
2018-07-30T11:18:27.051Z,11.43
2018-07-30T11:20:55.904Z,11.00
2018-07-30T11:23:24.737Z,9.80
2018-07-30T11:25:53.642Z,11.53
2018-07-30T11:28:22.583Z,9.73
2018-07-30T11:30:51.375Z,11.43
2018-07-30T11:33:20.254Z,10.63
2018-07-30T11:35:49.119Z,10.13
2018-07-30T11:38:17.843Z,11.43
2018-07-30T11:40:46.739Z,10.70
2018-07-30T11:43:15.559Z,9.87
2018-07-30T11:45:44.408Z,10.10
2018-07-30T11:48:13.268Z,10.83
2018-07-30T11:50:42.115Z,9.77
2018-07-30T11:53:10.952Z,10.30
2018-07-30T11:55:39.792Z,12.87
2018-07-30T11:58:08.654Z,12.60
2018-07-30T12:00:37.599Z,16.80
2018-07-30T12:03:06.466Z,22.47
2018-07-30T12:05:35.355Z,27.83
2018-07-30T12:08:04.215Z,17.20
2018-07-30T12:10:33.105Z,12.63
2018-07-30T12:13:01.951Z,12.27
2018-07-30T12:15:30.829Z,11.20
2018-07-30T12:17:59.678Z,10.73
2018-07-30T12:20:29.136Z,11.63
2018-07-30T12:22:58.038Z,10.37
2018-07-30T12:25:26.790Z,12.10
2018-07-30T12:27:55.663Z,14.63
2018-07-30T12:30:24.716Z,22.57
2018-07-30T12:32:54.305Z,11.37
2018-07-30T12:35:23.645Z,10.83
2018-07-30T12:37:53.015Z,11.50
2018-07-30T12:40:21.927Z,10.73
2018-07-30T12:42:51.639Z,10.53
2018-07-30T12:45:26.095Z,11.40
2018-07-30T12:47:54.939Z,11.23
2018-07-30T12:50:24.123Z,11.57
2018-07-30T12:52:53.155Z,11.10
2018-07-30T12:55:22.053Z,10.93
2018-07-30T12:57:51.290Z,10.80
2018-07-30T13:00:20.835Z,10.10
2018-07-30T13:02:49.732Z,9.90
2018-07-30T13:05:19.499Z,10.10
2018-07-30T13:07:49.187Z,10.67
2018-07-30T13:10:18.231Z,10.53
2018-07-30T13:12:47.359Z,9.80
2018-07-30T13:15:16.479Z,11.30
2018-07-30T13:17:45.883Z,10.63
2018-07-30T13:20:14.962Z,9.90
2018-07-30T13:22:43.905Z,10.90
2018-07-30T13:25:12.645Z,10.53
2018-07-30T13:27:41.964Z,10.17
2018-07-30T13:30:10.919Z,10.30
2018-07-30T13:32:39.905Z,10.53
2018-07-30T13:35:08.673Z,10.80
2018-07-30T13:37:37.459Z,10.40
2018-07-30T13:40:06.214Z,11.17
2018-07-30T13:42:35.639Z,10.40
2018-07-30T13:45:05.679Z,11.60
2018-07-30T13:47:35.282Z,12.10
2018-07-30T13:50:05.795Z,11.57
2018-07-30T13:52:34.747Z,11.20
2018-07-30T13:55:04.285Z,11.30
2018-07-30T13:57:33.136Z,11.13
2018-07-30T14:00:02.496Z,11.30
2018-07-30T14:02:31.365Z,10.70
2018-07-30T14:05:00.335Z,10.03
2018-07-30T14:07:29.500Z,11.53
2018-07-30T14:09:58.579Z,11.00
2018-07-30T14:12:27.617Z,10.77
2018-07-30T14:14:56.688Z,11.03
2018-07-30T14:17:25.740Z,10.97
2018-07-30T14:19:54.603Z,10.20
2018-07-30T14:22:23.521Z,10.50
2018-07-30T14:24:52.307Z,10.53
2018-07-30T14:27:21.139Z,10.23
2018-07-30T14:29:50.024Z,10.57
2018-07-30T14:32:18.931Z,10.63
2018-07-30T14:34:47.757Z,11.13
2018-07-30T14:37:16.511Z,10.37
2018-07-30T14:39:45.422Z,11.23
2018-07-30T14:42:14.286Z,11.20
2018-07-30T14:44:43.157Z,11.80
2018-07-30T14:47:12.064Z,11.77
2018-07-30T14:49:40.959Z,11.00
2018-07-30T14:52:09.822Z,13.07
2018-07-30T14:54:38.748Z,12.03
2018-07-30T14:57:07.636Z,12.73
2018-07-30T14:59:36.697Z,12.63
2018-07-30T15:02:05.658Z,14.17
2018-07-30T15:04:34.643Z,13.00
2018-07-30T15:07:04.576Z,12.43
2018-07-30T15:09:33.449Z,12.57
2018-07-30T15:12:02.670Z,13.80
2018-07-30T15:14:31.520Z,12.97
2018-07-30T15:17:00.366Z,12.70
2018-07-30T15:19:29.277Z,12.57
2018-07-30T15:21:58.150Z,14.63
2018-07-30T15:24:26.896Z,13.87
2018-07-30T15:26:55.775Z,14.00
2018-07-30T15:29:24.690Z,13.17
2018-07-30T15:31:53.563Z,13.40
2018-07-30T15:34:22.408Z,13.70
2018-07-30T15:36:51.301Z,13.67
2018-07-30T15:39:20.055Z,12.97
2018-07-30T15:41:48.793Z,13.43
2018-07-30T15:44:17.720Z,12.57
2018-07-30T15:46:46.633Z,13.10
2018-07-30T15:49:16.095Z,12.67
2018-07-30T15:51:44.910Z,14.00
2018-07-30T15:54:13.727Z,15.10
2018-07-30T15:56:42.537Z,14.30
2018-07-30T15:59:11.655Z,13.03
2018-07-30T16:01:40.544Z,12.97
2018-07-30T16:04:09.461Z,13.43
2018-07-30T16:06:38.542Z,14.23
2018-07-30T16:09:08.014Z,13.23
2018-07-30T16:11:37.216Z,14.00
2018-07-30T16:14:06.164Z,14.20
2018-07-30T16:16:34.932Z,11.47
2018-07-30T16:19:03.794Z,11.90
2018-07-30T16:21:32.644Z,12.27
2018-07-30T16:24:01.595Z,13.17
2018-07-30T16:26:30.488Z,14.27
2018-07-30T16:28:59.348Z,12.70
2018-07-30T16:31:28.219Z,12.73
2018-07-30T16:33:56.958Z,12.60
2018-07-30T16:36:25.864Z,12.27
2018-07-30T16:38:54.688Z,11.60
2018-07-30T16:41:24.034Z,12.50
2018-07-30T16:43:52.984Z,13.20
2018-07-30T16:46:21.860Z,13.07
2018-07-30T16:48:50.732Z,13.03
2018-07-30T16:58:19.813Z,13.20
2018-07-30T17:00:48.686Z,13.40
2018-07-30T17:03:17.569Z,12.87
2018-07-30T17:05:46.453Z,13.10
2018-07-30T17:08:15.255Z,11.40
2018-07-30T17:10:43.997Z,11.23
2018-07-30T17:13:12.960Z,11.80
2018-07-30T17:15:41.856Z,12.53
2018-07-30T17:18:10.728Z,11.53
2018-07-30T17:20:39.596Z,12.47
2018-07-30T17:23:08.521Z,14.40
2018-07-30T17:25:37.344Z,11.43
2018-07-30T17:28:06.355Z,10.80
2018-07-30T17:30:35.118Z,11.40
2018-07-30T17:33:04.035Z,10.20
2018-07-30T17:35:32.776Z,11.23
2018-07-30T17:38:01.710Z,10.17
2018-07-30T17:40:30.554Z,12.27
2018-07-30T17:42:59.364Z,11.67
2018-07-30T17:45:28.350Z,11.57
2018-07-30T17:47:57.194Z,11.27
2018-07-30T17:50:26.110Z,11.47
2018-07-30T17:52:54.963Z,10.90
2018-07-30T17:55:24.236Z,10.93
2018-07-30T17:57:53.133Z,11.73
2018-07-30T18:00:21.979Z,10.80
2018-07-30T18:02:51.324Z,10.93
2018-07-30T18:05:20.402Z,11.53
2018-07-30T18:07:50.685Z,11.53
2018-07-30T18:10:19.803Z,12.33
2018-07-30T18:12:48.757Z,12.13
2018-07-30T18:15:17.703Z,12.03
2018-07-30T18:17:47.707Z,11.30
2018-07-30T18:20:18.058Z,11.30
2018-07-30T18:22:46.868Z,10.43
2018-07-30T18:25:15.784Z,11.37
2018-07-30T18:27:44.750Z,11.30
2018-07-30T18:30:13.716Z,11.27
2018-07-30T18:32:42.553Z,11.07
2018-07-30T18:35:11.474Z,10.97
2018-07-30T18:37:40.390Z,10.97
2018-07-30T18:40:10.383Z,10.80
2018-07-30T18:42:39.706Z,11.13
2018-07-30T18:45:08.895Z,12.07
2018-07-30T18:47:37.851Z,12.03
2018-07-30T18:50:06.807Z,11.63
2018-07-30T18:52:35.959Z,11.57
2018-07-30T18:55:05.167Z,11.50
2018-07-30T18:57:34.096Z,11.53
2018-07-30T19:00:03.892Z,11.30
2018-07-30T19:02:32.817Z,11.30
2018-07-30T19:05:01.825Z,10.43
2018-07-30T19:07:31.852Z,11.40
2018-07-30T19:10:00.818Z,10.53
2018-07-30T19:12:29.725Z,12.43
2018-07-30T19:14:59.137Z,11.77
2018-07-30T19:17:28.004Z,12.63
2018-07-30T19:19:57.063Z,10.83
2018-07-30T19:22:25.933Z,13.40
2018-07-30T19:24:55.208Z,12.07
2018-07-30T19:27:24.081Z,11.87
2018-07-30T19:29:52.964Z,11.50
2018-07-30T19:32:22.102Z,12.93
2018-07-30T19:34:51.429Z,11.43
2018-07-30T19:37:20.364Z,11.40
2018-07-30T19:39:49.272Z,10.27
2018-07-30T19:42:18.140Z,10.50
2018-07-30T19:44:46.970Z,11.47
2018-07-30T19:47:15.847Z,11.93
2018-07-30T19:49:44.911Z,11.07
2018-07-30T19:52:13.832Z,11.17
2018-07-30T19:54:42.699Z,11.90
2018-07-30T19:57:11.667Z,11.27
2018-07-30T19:59:40.560Z,11.27
2018-07-30T20:02:10.507Z,11.70
2018-07-30T20:04:39.515Z,12.77
2018-07-30T20:07:09.227Z,11.80
2018-07-30T20:09:38.186Z,11.53
2018-07-30T20:12:07.187Z,11.80
2018-07-30T20:14:37.135Z,13.30
2018-07-30T20:17:06.462Z,11.63
2018-07-30T20:19:35.725Z,15.30
2018-07-30T20:22:04.996Z,12.70
2018-07-30T20:24:34.078Z,13.93
2018-07-30T20:27:03.422Z,12.90
2018-07-30T20:29:32.658Z,14.00
2018-07-30T20:32:02.005Z,12.10
2018-07-30T20:34:31.632Z,13.47
2018-07-30T20:37:00.978Z,15.27
2018-07-30T20:39:30.015Z,14.03
2018-07-30T20:41:59.064Z,13.60
2018-07-30T20:44:27.874Z,12.17
2018-07-30T20:46:56.873Z,12.83
2018-07-30T20:49:26.452Z,11.90
2018-07-30T20:51:55.505Z,13.13
2018-07-30T20:54:25.558Z,12.40
2018-07-30T20:56:54.553Z,12.70
2018-07-30T20:59:26.010Z,13.13
2018-07-30T21:01:56.486Z,12.47
2018-07-30T21:04:26.167Z,13.33
2018-07-30T21:06:57.236Z,13.00
2018-07-30T21:09:26.417Z,11.83
2018-07-30T21:11:55.339Z,13.60
2018-07-30T21:14:24.456Z,11.60
2018-07-30T21:16:53.358Z,12.63
2018-07-30T21:19:22.244Z,12.73
2018-07-30T21:21:51.214Z,12.73
2018-07-30T21:24:20.735Z,12.70
2018-07-30T21:26:49.663Z,12.50
2018-07-30T21:29:18.558Z,11.63
2018-07-30T21:31:47.467Z,12.40
2018-07-30T21:34:17.282Z,13.20
2018-07-30T21:36:46.206Z,13.07
2018-07-30T21:39:15.072Z,11.83
2018-07-30T21:41:43.950Z,11.90
2018-07-30T21:44:12.793Z,12.53
2018-07-30T21:46:42.012Z,11.27
2018-07-30T21:49:10.892Z,12.40
2018-07-30T21:51:39.771Z,12.30
2018-07-30T21:54:08.604Z,12.00
2018-07-30T21:56:37.435Z,12.37
2018-07-30T21:59:06.327Z,11.97
2018-07-30T22:01:35.209Z,11.53
2018-07-30T22:04:04.223Z,13.07
2018-07-30T22:06:33.135Z,11.70
2018-07-30T22:09:02.064Z,12.03
2018-07-30T22:11:30.939Z,13.23
2018-07-30T22:13:59.811Z,11.90
2018-07-30T22:16:28.740Z,10.70
2018-07-30T22:18:57.604Z,12.30
2018-07-30T22:21:26.472Z,11.00
2018-07-30T22:23:55.331Z,11.60
2018-07-30T22:26:24.256Z,11.20
2018-07-30T22:28:53.024Z,12.30
2018-07-30T22:31:21.880Z,11.50
2018-07-30T22:33:50.757Z,12.77
2018-07-30T22:36:19.668Z,12.20
2018-07-30T22:38:48.560Z,13.40
2018-07-30T22:41:17.407Z,13.07
2018-07-30T22:43:46.284Z,11.73
2018-07-30T22:46:15.152Z,12.80
2018-07-30T22:48:43.995Z,12.60
2018-07-30T22:51:12.858Z,12.87
2018-07-30T22:53:41.722Z,12.30
2018-07-30T22:56:10.579Z,12.23
2018-07-30T22:58:39.450Z,12.70
2018-07-30T23:01:08.368Z,13.90
2018-07-30T23:03:37.263Z,12.33
2018-07-30T23:06:06.172Z,12.80
2018-07-30T23:08:35.055Z,14.10
2018-07-30T23:11:03.918Z,12.60
2018-07-30T23:13:32.808Z,12.40
2018-07-30T23:16:01.747Z,12.10
2018-07-30T23:18:30.575Z,11.87
2018-07-30T23:20:59.438Z,12.30
2018-07-30T23:23:28.300Z,12.90
2018-07-30T23:25:57.231Z,12.50
2018-07-30T23:28:26.076Z,12.83
2018-07-30T23:30:54.955Z,12.30
2018-07-30T23:33:23.854Z,13.47
2018-07-30T23:35:52.815Z,11.53
2018-07-30T23:38:21.654Z,13.37
2018-07-30T23:40:50.535Z,11.77
2018-07-30T23:43:19.453Z,12.17
2018-07-30T23:45:48.282Z,12.33
2018-07-30T23:48:17.987Z,10.90
2018-07-30T23:50:46.753Z,12.87
2018-07-30T23:53:15.600Z,11.07
2018-07-30T23:55:44.474Z,12.80
2018-07-30T23:58:13.454Z,11.10
